createdAt,value
2023-05-17T00:02:22.846Z,63.42
2023-05-17T00:04:54.255Z,63.53
2023-05-17T00:07:25.148Z,63.58
2023-05-17T00:09:55.895Z,63.50
2023-05-17T00:12:26.712Z,63.51
2023-05-17T00:14:57.600Z,63.48
2023-05-17T00:17:28.413Z,63.48
2023-05-17T00:19:59.090Z,63.53
2023-05-17T00:22:29.979Z,63.51
2023-05-17T00:25:00.818Z,63.46
2023-05-17T00:27:31.667Z,63.51
2023-05-17T00:30:02.420Z,63.54
2023-05-17T00:32:33.206Z,63.52
2023-05-17T00:35:04.068Z,63.51
2023-05-17T00:37:34.909Z,63.67
2023-05-17T00:40:06.432Z,63.67
2023-05-17T00:42:37.390Z,63.55
2023-05-17T00:45:10.303Z,63.56
2023-05-17T00:47:41.221Z,63.56
2023-05-17T00:50:13.158Z,63.54
2023-05-17T00:52:44.058Z,63.55
2023-05-17T00:55:14.864Z,63.46
2023-05-17T00:57:46.911Z,63.54
2023-05-17T01:00:18.142Z,63.64
2023-05-17T01:02:49.788Z,63.67
2023-05-17T01:05:20.702Z,63.59
2023-05-17T01:07:51.523Z,63.63
2023-05-17T01:10:22.622Z,63.72
2023-05-17T01:12:58.089Z,63.69
2023-05-17T01:15:33.139Z,63.68
2023-05-17T01:18:10.759Z,63.66
2023-05-17T01:20:43.698Z,63.49
2023-05-17T01:23:32.664Z,63.59
2023-05-17T01:26:07.922Z,63.69
2023-05-17T01:28:39.712Z,63.65
2023-05-17T01:31:11.778Z,63.67
2023-05-17T01:33:42.831Z,63.55
2023-05-17T01:36:13.656Z,63.56
2023-05-17T01:38:45.548Z,63.51
2023-05-17T01:41:17.834Z,63.55
2023-05-17T01:43:51.470Z,63.59
2023-05-17T01:46:26.058Z,63.55
2023-05-17T01:49:06.849Z,63.59
2023-05-17T01:51:41.111Z,63.69
2023-05-17T01:54:12.866Z,63.66
2023-05-17T01:56:45.104Z,63.60
2023-05-17T01:59:18.244Z,63.55
2023-05-17T02:01:49.848Z,63.62
2023-05-17T02:04:21.358Z,63.67
2023-05-17T02:06:52.198Z,63.55
2023-05-17T02:09:23.003Z,63.61
2023-05-17T02:11:53.895Z,63.72
2023-05-17T02:14:24.772Z,63.66
2023-05-17T02:16:55.518Z,63.63
2023-05-17T02:19:26.295Z,63.59
2023-05-17T02:21:57.066Z,63.59
2023-05-17T02:24:28.020Z,63.65
2023-05-17T02:26:58.847Z,63.67
2023-05-17T02:29:29.782Z,63.70
2023-05-17T02:32:00.532Z,63.71
2023-05-17T02:34:31.452Z,63.80
2023-05-17T02:37:02.293Z,63.74
2023-05-17T02:39:33.482Z,63.75
2023-05-17T02:42:04.235Z,63.77
2023-05-17T02:44:35.039Z,63.73
2023-05-17T02:47:06.209Z,63.78
2023-05-17T02:49:37.265Z,63.85
2023-05-17T02:52:09.534Z,63.82
2023-05-17T02:54:40.483Z,63.77
2023-05-17T02:57:11.665Z,63.86
2023-05-17T02:59:42.530Z,63.82
2023-05-17T03:02:13.568Z,63.78
2023-05-17T03:04:45.017Z,63.80
2023-05-17T03:07:16.362Z,63.85
2023-05-17T03:09:47.618Z,63.85
2023-05-17T03:12:18.418Z,63.92
2023-05-17T03:14:50.668Z,63.88
2023-05-17T03:17:21.599Z,63.77
2023-05-17T03:19:53.140Z,63.87
2023-05-17T03:22:24.467Z,63.88
2023-05-17T03:24:56.316Z,63.95
2023-05-17T03:27:27.314Z,63.93
2023-05-17T03:29:58.693Z,63.98
2023-05-17T03:32:30.778Z,63.93
2023-05-17T03:35:02.636Z,63.98
2023-05-17T03:37:34.022Z,63.99
2023-05-17T03:40:06.106Z,63.90
2023-05-17T03:42:37.109Z,63.91
2023-05-17T03:45:09.466Z,63.80
2023-05-17T03:47:41.094Z,64.04
2023-05-17T03:50:13.957Z,63.95
2023-05-17T03:52:46.307Z,64.10
2023-05-17T03:55:17.266Z,64.05
2023-05-17T03:57:48.191Z,64.04
2023-05-17T04:00:22.349Z,63.99
2023-05-17T04:02:53.274Z,64.05
2023-05-17T04:05:24.421Z,64.07
2023-05-17T04:07:56.815Z,63.97
2023-05-17T04:10:27.670Z,64.07
2023-05-17T04:12:58.442Z,63.99
2023-05-17T04:15:29.432Z,64.01
2023-05-17T04:18:00.585Z,63.98
2023-05-17T04:20:32.453Z,64.00
2023-05-17T04:23:03.295Z,64.04
2023-05-17T04:25:35.449Z,64.04
2023-05-17T04:28:06.229Z,64.18
2023-05-17T04:30:37.353Z,64.18
2023-05-17T04:33:08.246Z,64.11
2023-05-17T04:35:40.024Z,64.06
2023-05-17T04:38:10.914Z,64.09
2023-05-17T04:40:42.571Z,64.17
2023-05-17T04:43:13.291Z,64.20
2023-05-17T04:45:45.550Z,64.17
2023-05-17T04:48:19.784Z,64.25
2023-05-17T04:50:50.661Z,64.19
2023-05-17T04:53:21.743Z,64.29
2023-05-17T04:55:53.361Z,64.21
2023-05-17T04:58:25.252Z,64.29
2023-05-17T05:00:58.585Z,64.39
2023-05-17T05:03:29.530Z,64.34
2023-05-17T05:06:00.593Z,64.35
2023-05-17T05:08:31.586Z,64.27
2023-05-17T05:11:02.402Z,64.28
2023-05-17T05:13:34.903Z,64.23
2023-05-17T05:16:06.244Z,64.37
2023-05-17T05:18:38.319Z,64.21
2023-05-17T05:21:09.624Z,64.22
2023-05-17T05:23:41.894Z,64.38
2023-05-17T05:26:12.835Z,64.24
2023-05-17T05:28:43.767Z,64.27
2023-05-17T05:31:15.274Z,64.37
2023-05-17T05:33:50.377Z,64.26
2023-05-17T05:36:21.839Z,64.18
2023-05-17T05:38:54.462Z,64.20
2023-05-17T05:41:25.470Z,64.24
2023-05-17T05:43:56.386Z,64.29
2023-05-17T05:46:28.305Z,64.29
2023-05-17T05:48:59.472Z,64.31
2023-05-17T05:51:31.732Z,64.28
2023-05-17T05:54:02.535Z,64.32
2023-05-17T05:56:33.555Z,64.22
2023-05-17T05:59:04.336Z,64.23
2023-05-17T06:01:35.286Z,64.26
2023-05-17T06:04:06.343Z,64.18
2023-05-17T06:06:37.325Z,64.27
2023-05-17T06:09:12.319Z,64.30
2023-05-17T06:11:43.186Z,64.17
2023-05-17T06:14:14.196Z,64.18
2023-05-17T06:16:45.151Z,64.24
2023-05-17T06:19:15.826Z,64.23
2023-05-17T06:21:46.956Z,64.25
2023-05-17T06:24:18.129Z,64.24
2023-05-17T06:26:49.003Z,64.18
2023-05-17T06:29:19.805Z,64.24
2023-05-17T06:31:50.802Z,64.17
2023-05-17T06:34:21.641Z,64.24
2023-05-17T06:36:52.350Z,64.26
2023-05-17T06:39:23.201Z,64.31
2023-05-17T06:41:53.982Z,64.37
2023-05-17T06:44:24.818Z,64.25
2023-05-17T06:46:56.704Z,64.28
2023-05-17T06:49:27.518Z,64.24
2023-05-17T06:52:03.494Z,64.25
2023-05-17T06:54:34.670Z,64.23
2023-05-17T06:57:05.844Z,64.24
2023-05-17T06:59:36.663Z,64.13
2023-05-17T07:02:07.874Z,64.15
2023-05-17T07:04:38.665Z,64.19
2023-05-17T07:07:09.692Z,64.18
2023-05-17T07:09:40.596Z,64.14
2023-05-17T07:12:11.461Z,64.05
2023-05-17T07:14:42.275Z,64.01
2023-05-17T07:17:13.495Z,64.03
2023-05-17T07:19:44.892Z,63.98
2023-05-17T07:22:16.168Z,63.90
2023-05-17T07:24:47.180Z,63.86
2023-05-17T07:27:20.909Z,63.92
2023-05-17T07:29:51.650Z,64.00
2023-05-17T07:32:22.525Z,64.03
2023-05-17T07:34:53.205Z,63.93
2023-05-17T07:37:24.137Z,63.94
2023-05-17T07:39:55.010Z,64.04
2023-05-17T07:42:26.070Z,64.03
2023-05-17T07:44:56.844Z,63.81
2023-05-17T07:47:27.788Z,63.60
2023-05-17T07:49:58.846Z,63.64
2023-05-17T07:52:29.758Z,63.51
2023-05-17T07:55:00.588Z,63.40
2023-05-17T07:57:31.450Z,63.32
2023-05-17T08:00:02.259Z,63.20
2023-05-17T08:02:42.309Z,63.24
2023-05-17T08:05:13.355Z,63.18
2023-05-17T08:07:44.266Z,63.28
2023-05-17T08:10:15.020Z,63.20
2023-05-17T08:12:46.295Z,63.24
2023-05-17T08:15:17.097Z,63.19
2023-05-17T08:17:47.977Z,63.18
2023-05-17T08:20:18.939Z,63.13
2023-05-17T08:22:49.759Z,63.09
2023-05-17T08:25:20.933Z,63.05
2023-05-17T08:27:51.920Z,63.12
2023-05-17T08:32:58.955Z,62.90
2023-05-17T08:35:30.029Z,62.79
2023-05-17T08:38:01.145Z,62.79
2023-05-17T08:40:32.325Z,62.51
2023-05-17T08:43:03.534Z,62.26
2023-05-17T08:45:34.456Z,62.38
2023-05-17T08:48:05.959Z,62.13
2023-05-17T08:50:38.403Z,62.40
2023-05-17T08:53:10.538Z,62.55
2023-05-17T08:55:43.717Z,62.48
2023-05-17T08:58:16.815Z,62.17
2023-05-17T09:00:47.892Z,62.10
2023-05-17T09:03:20.059Z,62.21
2023-05-17T09:05:52.905Z,62.06
2023-05-17T09:08:24.163Z,62.11
2023-05-17T09:10:55.497Z,61.77
2023-05-17T09:13:26.628Z,62.03
2023-05-17T09:15:57.412Z,61.99
2023-05-17T09:18:34.292Z,61.89
2023-05-17T09:21:05.587Z,61.83
2023-05-17T09:23:39.080Z,62.06
2023-05-17T09:26:09.895Z,62.12
2023-05-17T09:28:42.278Z,61.94
2023-05-17T09:31:15.259Z,61.86
2023-05-17T09:33:46.932Z,61.67
2023-05-17T09:36:19.330Z,61.58
2023-05-17T09:38:56.885Z,61.30
2023-05-17T09:41:29.266Z,61.63
2023-05-17T09:44:04.040Z,61.49
2023-05-17T09:46:36.296Z,61.57
2023-05-17T09:49:07.537Z,61.38
2023-05-17T09:51:38.917Z,61.45
2023-05-17T09:54:10.444Z,61.54
2023-05-17T09:56:41.522Z,61.35
2023-05-17T09:59:16.306Z,61.56
2023-05-17T10:01:50.398Z,61.42
2023-05-17T10:04:23.341Z,61.10
2023-05-17T10:06:55.137Z,60.55
2023-05-17T10:09:27.320Z,60.82
2023-05-17T10:12:00.046Z,60.67
2023-05-17T10:14:33.179Z,60.78
2023-05-17T10:17:04.395Z,60.74
2023-05-17T10:19:35.284Z,60.17
2023-05-17T10:22:21.852Z,60.38
2023-05-17T10:24:53.939Z,60.38
2023-05-17T10:27:25.165Z,60.29
2023-05-17T10:29:56.023Z,59.92
2023-05-17T10:32:28.534Z,60.07
2023-05-17T10:35:10.241Z,59.13
2023-05-17T10:37:42.423Z,58.87
2023-05-17T10:40:14.364Z,59.64
2023-05-17T10:42:47.828Z,58.60
2023-05-17T10:45:21.665Z,59.32
2023-05-17T10:47:53.659Z,58.87
2023-05-17T10:50:25.243Z,58.91
2023-05-17T10:52:59.086Z,58.41
2023-05-17T10:55:38.601Z,58.19
2023-05-17T10:58:17.225Z,58.59
2023-05-17T11:00:49.615Z,58.69
2023-05-17T11:03:21.130Z,58.83
2023-05-17T11:06:13.176Z,58.59
2023-05-17T11:09:06.687Z,58.27
2023-05-17T11:11:37.434Z,58.78
2023-05-17T11:14:11.920Z,58.44
2023-05-17T11:16:42.748Z,58.81
2023-05-17T11:19:13.476Z,58.59
2023-05-17T11:21:50.289Z,58.16
2023-05-17T11:24:26.951Z,58.48
2023-05-17T11:27:00.414Z,57.51
2023-05-17T11:29:31.964Z,57.84
2023-05-17T11:32:06.764Z,57.71
2023-05-17T11:34:37.872Z,57.69
2023-05-17T11:37:12.130Z,57.45
2023-05-17T11:40:02.239Z,57.65
2023-05-17T11:42:33.324Z,57.56
2023-05-17T11:45:05.121Z,57.32
2023-05-17T11:47:40.130Z,57.50
2023-05-17T11:50:12.274Z,57.63
2023-05-17T11:52:44.267Z,56.90
2023-05-17T11:55:16.153Z,56.41
2023-05-17T11:57:47.725Z,56.38
2023-05-17T12:00:27.293Z,57.15
2023-05-17T12:02:58.562Z,56.30
2023-05-17T12:05:29.482Z,56.65
2023-05-17T12:08:00.526Z,56.54
2023-05-17T12:10:34.818Z,56.85
2023-05-17T12:13:06.179Z,56.56
2023-05-17T12:15:36.922Z,56.58
2023-05-17T12:18:07.867Z,56.62
2023-05-17T12:20:39.452Z,56.58
2023-05-17T12:23:10.290Z,56.58
2023-05-17T12:25:41.380Z,56.57
2023-05-17T12:28:15.641Z,55.24
2023-05-17T12:30:47.102Z,55.86
2023-05-17T12:33:18.396Z,55.88
2023-05-17T12:35:49.756Z,56.00
2023-05-17T12:38:20.951Z,56.03
2023-05-17T12:40:51.951Z,56.09
2023-05-17T12:43:24.527Z,55.96
2023-05-17T12:45:55.534Z,54.85
2023-05-17T12:48:29.234Z,55.93
2023-05-17T12:51:06.474Z,55.56
2023-05-17T12:53:38.374Z,55.65
2023-05-17T12:56:10.091Z,55.46
2023-05-17T12:58:41.067Z,55.71
2023-05-17T13:01:14.685Z,55.75
2023-05-17T13:03:51.486Z,55.43
2023-05-17T13:06:22.652Z,55.67
2023-05-17T13:09:01.176Z,55.35
2023-05-17T13:11:31.941Z,55.03
2023-05-17T13:14:02.746Z,55.43
2023-05-17T13:16:33.560Z,55.41
2023-05-17T13:19:12.775Z,55.56
2023-05-17T13:21:43.665Z,55.36
2023-05-17T13:24:15.264Z,55.39
2023-05-17T13:26:46.187Z,55.35
2023-05-17T13:29:17.521Z,55.35
2023-05-17T13:31:51.539Z,55.13
2023-05-17T13:34:22.285Z,55.27
2023-05-17T13:36:53.244Z,55.20
2023-05-17T13:39:24.582Z,55.27
2023-05-17T13:41:55.280Z,55.33
2023-05-17T13:44:26.149Z,55.19
2023-05-17T13:46:56.893Z,55.14
2023-05-17T13:49:29.386Z,55.17
2023-05-17T13:52:00.884Z,55.20
2023-05-17T13:54:31.783Z,55.10
2023-05-17T13:57:02.542Z,55.14
2023-05-17T13:59:33.317Z,55.05
2023-05-17T14:02:04.696Z,55.01
2023-05-17T14:04:35.786Z,54.80
2023-05-17T14:07:06.705Z,54.90
2023-05-17T14:09:37.569Z,54.81
2023-05-17T14:12:08.698Z,54.90
2023-05-17T14:14:39.553Z,54.78
2023-05-17T14:17:10.269Z,54.66
2023-05-17T14:19:41.194Z,54.47
2023-05-17T14:22:13.836Z,54.74
2023-05-17T14:24:44.621Z,53.95
2023-05-17T14:27:15.429Z,54.34
2023-05-17T14:29:46.234Z,54.44
2023-05-17T14:32:17.016Z,54.53
2023-05-17T14:34:47.804Z,54.07
2023-05-17T14:37:18.743Z,54.30
2023-05-17T14:40:05.436Z,54.49
2023-05-17T14:42:37.558Z,54.38
2023-05-17T14:45:10.041Z,54.13
2023-05-17T14:47:40.930Z,54.14
2023-05-17T14:50:12.413Z,53.74
2023-05-17T14:52:44.360Z,54.02
2023-05-17T14:55:16.619Z,54.05
2023-05-17T14:57:47.352Z,53.80
2023-05-17T15:00:18.800Z,53.44
2023-05-17T15:02:49.536Z,54.00
2023-05-17T15:05:20.760Z,53.85
2023-05-17T15:07:51.883Z,53.72
2023-05-17T15:10:23.279Z,53.79
2023-05-17T15:12:54.107Z,53.83
2023-05-17T15:15:24.873Z,53.94
2023-05-17T15:17:56.774Z,53.56
2023-05-17T15:20:30.802Z,53.62
2023-05-17T15:23:01.650Z,53.59
2023-05-17T15:25:32.406Z,53.67
2023-05-17T15:28:03.242Z,53.31
2023-05-17T15:30:34.159Z,53.36
2023-05-17T15:33:05.187Z,53.53
2023-05-17T15:35:37.217Z,53.48
2023-05-17T15:38:08.101Z,53.55
2023-05-17T15:40:39.413Z,53.73
2023-05-17T15:43:10.164Z,52.85
2023-05-17T15:45:40.978Z,53.25
2023-05-17T15:48:12.106Z,53.20
2023-05-17T15:50:42.912Z,53.28
2023-05-17T15:53:14.850Z,53.23
2023-05-17T15:55:50.802Z,53.09
2023-05-17T15:58:22.192Z,52.89
2023-05-17T16:00:53.053Z,52.96
2023-05-17T16:03:23.907Z,53.19
2023-05-17T16:05:54.775Z,53.08
2023-05-17T16:08:25.961Z,52.99
2023-05-17T16:10:56.897Z,53.04
2023-05-17T16:13:27.788Z,53.05
2023-05-17T16:15:59.579Z,52.99
2023-05-17T16:18:31.388Z,52.76
2023-05-17T16:21:03.691Z,52.59
2023-05-17T16:23:34.573Z,52.49
2023-05-17T16:26:05.455Z,52.75
2023-05-17T16:28:37.085Z,52.78
2023-05-17T16:31:07.989Z,52.88
2023-05-17T16:33:38.967Z,52.94
2023-05-17T16:36:10.662Z,52.57
2023-05-17T16:38:41.567Z,52.67
2023-05-17T16:41:12.313Z,52.60
2023-05-17T16:43:43.105Z,52.56
2023-05-17T16:46:13.871Z,52.67
2023-05-17T16:48:44.713Z,52.61
2023-05-17T16:51:15.480Z,52.36
2023-05-17T16:53:46.450Z,52.27
2023-05-17T16:56:17.361Z,52.45
2023-05-17T16:58:48.077Z,52.27
2023-05-17T17:01:18.835Z,52.25
2023-05-17T17:03:49.723Z,52.29
2023-05-17T17:06:20.636Z,52.31
2023-05-17T17:08:51.584Z,52.37
2023-05-17T17:11:22.901Z,52.25
2023-05-17T17:13:54.103Z,52.43
2023-05-17T17:16:25.023Z,52.35
2023-05-17T17:18:56.096Z,52.47
2023-05-17T17:21:26.886Z,52.35
2023-05-17T17:23:57.911Z,52.38
2023-05-17T17:26:28.608Z,52.26
2023-05-17T17:28:59.618Z,52.22
2023-05-17T17:31:30.438Z,52.23
2023-05-17T17:34:01.196Z,52.28
2023-05-17T17:36:32.041Z,51.92
2023-05-17T17:39:02.966Z,51.92
2023-05-17T17:41:33.944Z,52.13
2023-05-17T17:44:04.939Z,52.16
2023-05-17T17:46:36.290Z,52.27
2023-05-17T17:49:07.825Z,52.14
2023-05-17T17:51:38.761Z,52.33
2023-05-17T17:54:09.628Z,52.37
2023-05-17T17:56:40.695Z,52.07
2023-05-17T17:59:12.522Z,52.18
2023-05-17T18:01:44.698Z,51.97
2023-05-17T18:04:16.375Z,51.98
2023-05-17T18:06:47.247Z,51.74
2023-05-17T18:09:18.152Z,51.92
2023-05-17T18:11:49.490Z,51.95
2023-05-17T18:14:21.656Z,51.51
2023-05-17T18:16:52.506Z,51.35
2023-05-17T18:19:23.362Z,52.00
2023-05-17T18:21:54.275Z,51.96
2023-05-17T18:24:25.186Z,51.87
2023-05-17T18:26:56.104Z,51.86
2023-05-17T18:29:26.942Z,51.73
2023-05-17T18:31:59.596Z,51.94
2023-05-17T18:34:30.711Z,51.89
2023-05-17T18:37:01.634Z,52.02
2023-05-17T18:39:32.505Z,51.96
2023-05-17T18:42:04.198Z,52.01
2023-05-17T18:44:35.393Z,52.05
2023-05-17T18:47:06.646Z,51.84
2023-05-17T18:49:40.563Z,52.07
2023-05-17T18:52:11.365Z,52.09
2023-05-17T18:54:42.090Z,52.03
2023-05-17T18:57:14.222Z,51.97
2023-05-17T18:59:45.100Z,52.05
2023-05-17T19:02:15.987Z,51.99
2023-05-17T19:04:47.248Z,52.11
2023-05-17T19:07:18.393Z,52.21
2023-05-17T19:09:49.216Z,52.06
2023-05-17T19:12:19.988Z,52.04
2023-05-17T19:14:50.743Z,52.14
2023-05-17T19:17:21.628Z,51.98
2023-05-17T19:19:52.353Z,51.74
2023-05-17T19:22:23.199Z,51.86
2023-05-17T19:24:54.014Z,51.84
2023-05-17T19:27:24.803Z,51.97
2023-05-17T19:29:56.002Z,52.12
2023-05-17T19:32:27.183Z,52.14
2023-05-17T19:34:58.175Z,52.09
2023-05-17T19:37:29.035Z,52.05
2023-05-17T19:40:00.190Z,52.22
2023-05-17T19:42:31.039Z,52.22
2023-05-17T19:45:01.758Z,52.10
2023-05-17T19:47:32.679Z,52.28
2023-05-17T19:50:03.516Z,52.27
2023-05-17T19:52:34.357Z,52.17
2023-05-17T19:55:05.537Z,52.25
2023-05-17T19:57:36.391Z,52.19
2023-05-17T20:00:08.470Z,52.23
2023-05-17T20:02:39.347Z,52.25
2023-05-17T20:05:10.915Z,52.29
2023-05-17T20:07:41.863Z,52.36
2023-05-17T20:10:13.612Z,52.24
2023-05-17T20:12:44.370Z,52.37
2023-05-17T20:15:15.228Z,52.33
2023-05-17T20:17:45.980Z,52.37
2023-05-17T20:20:16.832Z,52.37
2023-05-17T20:22:47.801Z,52.30
2023-05-17T20:25:18.673Z,52.35
2023-05-17T20:27:49.384Z,52.38
2023-05-17T20:30:20.261Z,52.42
2023-05-17T20:32:51.083Z,52.41
2023-05-17T20:35:22.134Z,52.50
2023-05-17T20:37:52.920Z,52.58
2023-05-17T20:40:23.903Z,52.58
2023-05-17T20:42:54.816Z,52.50
2023-05-17T20:45:27.526Z,52.52
2023-05-17T20:47:58.455Z,52.48
2023-05-17T20:50:30.057Z,52.47
2023-05-17T20:53:01.252Z,52.54
2023-05-17T20:55:32.158Z,52.51
2023-05-17T20:58:02.940Z,52.36
2023-05-17T21:01:29.120Z,52.36
2023-05-17T21:04:17.549Z,52.52
2023-05-17T21:06:48.352Z,52.37
2023-05-17T21:09:19.191Z,52.51
2023-05-17T21:11:52.295Z,52.53
2023-05-17T21:14:23.146Z,52.56
2023-05-17T21:16:56.396Z,52.57
2023-05-17T21:19:27.125Z,52.66
2023-05-17T21:21:58.011Z,52.54
2023-05-17T21:24:28.980Z,52.63
2023-05-17T21:27:01.283Z,52.63
2023-05-17T21:29:32.155Z,52.45
2023-05-17T21:32:03.756Z,52.60
2023-05-17T21:34:34.484Z,52.68
2023-05-17T21:37:05.734Z,52.57
2023-05-17T21:39:36.485Z,52.60
2023-05-17T21:42:07.480Z,52.81
2023-05-17T21:44:38.336Z,52.81
2023-05-17T21:47:09.250Z,52.73
2023-05-17T21:49:40.097Z,52.69
2023-05-17T21:52:10.895Z,52.61
2023-05-17T21:54:41.739Z,52.76
2023-05-17T21:57:12.610Z,52.78
2023-05-17T21:59:43.471Z,52.79
2023-05-17T22:02:14.440Z,52.82
2023-05-17T22:04:45.475Z,52.90
2023-05-17T22:07:16.267Z,52.75
2023-05-17T22:09:47.582Z,52.81
2023-05-17T22:12:25.690Z,52.81
2023-05-17T22:14:57.119Z,52.87
2023-05-17T22:17:35.077Z,52.79
2023-05-17T22:20:12.048Z,52.89
2023-05-17T22:22:42.884Z,52.76
2023-05-17T22:25:15.674Z,52.84
2023-05-17T22:27:46.668Z,52.93
2023-05-17T22:30:17.496Z,52.81
2023-05-17T22:32:48.347Z,52.81
2023-05-17T22:35:19.313Z,52.87
2023-05-17T22:37:50.156Z,52.99
2023-05-17T22:40:21.350Z,53.07
2023-05-17T22:42:52.405Z,53.09
2023-05-17T22:45:26.071Z,52.99
2023-05-17T22:47:57.381Z,53.24
2023-05-17T22:50:30.689Z,53.22
2023-05-17T22:53:02.193Z,53.20
2023-05-17T22:55:33.283Z,53.23
2023-05-17T22:58:04.088Z,53.09
2023-05-17T23:00:34.865Z,53.20
2023-05-17T23:03:05.789Z,53.40
2023-05-17T23:05:37.013Z,53.21
2023-05-17T23:08:09.995Z,53.39
2023-05-17T23:10:40.846Z,53.26
2023-05-17T23:13:11.657Z,53.33
2023-05-17T23:15:47.089Z,53.30
2023-05-17T23:18:18.283Z,53.33
2023-05-17T23:20:49.189Z,53.44
2023-05-17T23:23:23.118Z,53.39
2023-05-17T23:25:56.558Z,53.33
2023-05-17T23:28:27.398Z,53.26
2023-05-17T23:31:02.446Z,53.28
2023-05-17T23:33:33.361Z,53.32
2023-05-17T23:36:04.142Z,53.47
2023-05-17T23:38:34.854Z,53.39
2023-05-17T23:41:05.690Z,53.47
2023-05-17T23:43:36.555Z,53.49
2023-05-17T23:46:08.958Z,53.40
2023-05-17T23:48:39.786Z,53.52
2023-05-17T23:51:10.658Z,53.47
2023-05-17T23:53:42.269Z,53.57
2023-05-17T23:56:13.011Z,53.57
2023-05-17T23:58:43.774Z,53.41
